Oshawa Airport
CYOO : rendu visible

Aérodrome :











RETROUVEZ-NOUS SUR...

 
LOGIN :

S'inscrire | Disclaimer

   EN    FR    IT 

 









Légende :    VFR   VFR Marginal   IFR   IFR Intensif   IFR Très Intensif
Visi : 
Plafond : 
>= 8 km
>= 3000ft
5 à 8 km
1000 à 3000 ft
1500m à 5 km
500 à 1000 ft
800 à 1500m
200 à 500 ft
< 800m
< 200 ft
Symboles :   Orages  Brouillard  Fortes neiges  Fortes précipitations  Vent > 20 kt






- Altitude de l'aérodrome : 459 ft
- Code IATA : YOO


CYOO - Oshawa

DERNIER METAR :
  • 231800Z AUTO 22010G17KT 9SM CLR 05/M03 A2999 RMK SLP163

METARs EXPIRÉS :
  • 231700Z AUTO 22007KT 9SM OVC180 04/M02 A3002 RMK SLP174
  • 231600Z AUTO 21011G16KT 9SM SCT190 SCT210 04/M02 A3002 RMK SLP175
  • 231500Z AUTO 23010KT 9SM SCT220 SCT240 03/M02 A3003 RMK SLP178

TAF TAF CYOO
Valide du 23 à 14h jusqu'au 24 à 02h UTC


231339Z 2314/2402 VRB03KT P6SM BKN180
BECMG 2314/2316 22007KT
BECMG 2317/2319 22008G18KT
FM232100 20010G20KT P6SM SCT180 RMK FCST BASED ON AUTO OBS. NXT FCST BY 232000Z



MET'MAP, la Météo Aéronautique d'un coup d'oeil ! - Copyright ORBIFLY Décembre 2007 - Disclaimer

ORBIFLY MET'MAP TEAM :

Programmation & Développement : Alexandra Zaïnal
Sur une idée originale de : Baudouin d'Aumeries
Assistance à la programmation : Marc-Olivier Méhu
Soutien technique & logistique : Manuel Goepfert

Contact : metmap@orbifly.com




SOURCES & CREDITS :

   NOAA       Earth
Advisory